Time;durP1;ratioP1;P1;durP2;ratioP2;P2;SDS_P1;SDS_P2;PMS_P1;PMS_P2;Temp;Humidity;BMP_temperature;BMP_pressure;BME280_temperature;BME280_humidity;BME280_pressure;Samples;Min_cycle;Max_cycle;Signal;HPM_P1;HPM_P2
2023/08/19 00:01:07;;;;;;;1.08;0.93;;;20.20;99.90;;;;;;5108884;27;20040;-65
2023/08/19 00:03:33;;;;;;;1.25;1.20;;;20.20;99.90;;;;;;5104178;28;20388;-65
2023/08/19 00:06:04;;;;;;;4.97;0.80;;;20.20;99.90;;;;;;5105669;28;20039;-65
2023/08/19 00:08:29;;;;;;;2.58;1.08;;;20.20;99.90;;;;;;5114582;28;20078;-65
2023/08/19 00:10:55;;;;;;;1.83;1.15;;;20.20;99.90;;;;;;5086235;28;20072;-65
2023/08/19 00:13:21;;;;;;;1.20;1.00;;;20.20;99.90;;;;;;5102022;28;20035;-65
2023/08/19 00:15:46;;;;;;;1.85;1.40;;;20.10;99.90;;;;;;5119345;28;20744;-65
2023/08/19 00:18:12;;;;;;;1.95;0.77;;;20.20;99.90;;;;;;5102962;28;20046;-65
2023/08/19 00:20:37;;;;;;;1.70;1.42;;;20.20;99.90;;;;;;5103340;28;20406;-65
2023/08/19 00:23:03;;;;;;;0.63;0.63;;;20.20;99.90;;;;;;5117174;27;20035;-65
2023/08/19 00:25:29;;;;;;;1.10;1.02;;;20.10;99.90;;;;;;5093420;28;20043;-65
2023/08/19 00:27:54;;;;;;;0.25;0.25;;;20.20;99.90;;;;;;5097336;28;20099;-65
2023/08/19 00:30:20;;;;;;;0.57;0.57;;;20.20;99.90;;;;;;5121110;28;20047;-65
2023/08/19 00:32:47;;;;;;;0.63;0.63;;;20.20;99.90;;;;;;5101564;28;20377;-65
2023/08/19 00:35:13;;;;;;;0.50;0.50;;;20.10;99.90;;;;;;5122821;28;20038;-65
2023/08/19 00:37:39;;;;;;;0.98;0.98;;;20.20;99.90;;;;;;5120120;28;20078;-65
2023/08/19 00:40:05;;;;;;;1.40;0.68;;;20.20;99.90;;;;;;5093275;28;20071;-65
2023/08/19 00:42:31;;;;;;;2.72;1.65;;;20.20;99.90;;;;;;5121876;27;20390;-65
2023/08/19 00:44:57;;;;;;;0.77;0.77;;;20.20;99.90;;;;;;5106717;27;20035;-65
2023/08/19 00:47:25;;;;;;;0.77;0.73;;;20.10;99.90;;;;;;5103575;27;20046;-66
2023/08/19 00:49:51;;;;;;;2.90;1.63;;;20.10;99.90;;;;;;5102261;27;20122;-66
2023/08/19 00:52:18;;;;;;;0.57;0.57;;;20.10;99.90;;;;;;5106413;27;20353;-65
2023/08/19 00:54:43;;;;;;;1.05;0.80;;;20.10;99.90;;;;;;5106221;27;20051;-65
2023/08/19 00:57:09;;;;;;;1.02;0.63;;;20.10;99.90;;;;;;5112904;27;20355;-65
2023/08/19 00:59:35;;;;;;;1.05;0.85;;;20.10;99.90;;;;;;5117435;27;20462;-65
2023/08/19 01:02:00;;;;;;;1.98;0.47;;;20.10;99.90;;;;;;5121151;27;20031;-65
2023/08/19 01:04:26;;;;;;;1.13;0.85;;;20.10;99.90;;;;;;5106718;27;20047;-65
2023/08/19 01:07:08;;;;;;;0.80;0.80;;;20.10;99.90;;;;;;5104561;27;20039;-65
2023/08/19 01:09:57;;;;;;;1.50;0.80;;;20.10;99.90;;;;;;5102886;27;20039;-66
2023/08/19 01:12:46;;;;;;;1.85;0.82;;;20.10;99.90;;;;;;5102690;27;20035;-66
2023/08/19 01:15:21;;;;;;;2.60;0.77;;;20.10;99.90;;;;;;5135750;27;20375;-65
2023/08/19 01:17:49;;;;;;;0.22;0.22;;;20.10;99.90;;;;;;5105192;27;20047;-66
2023/08/19 01:20:15;;;;;;;6.05;1.08;;;20.10;99.90;;;;;;5126966;27;20054;-65
2023/08/19 01:23:02;;;;;;;0.68;0.68;;;20.10;99.90;;;;;;5105510;27;20046;-66
2023/08/19 01:25:29;;;;;;;1.85;0.50;;;20.10;99.90;;;;;;5103261;27;20067;-65
2023/08/19 01:27:54;;;;;;;2.60;0.88;;;20.10;99.90;;;;;;5133637;27;20043;-66
2023/08/19 01:30:20;;;;;;;1.42;0.60;;;20.10;99.90;;;;;;5132118;27;20038;-66
2023/08/19 01:32:46;;;;;;;0.40;0.40;;;20.10;99.90;;;;;;5102899;27;20481;-65
2023/08/19 01:35:14;;;;;;;0.55;0.55;;;20.10;99.90;;;;;;5121752;27;20517;-65
2023/08/19 01:38:02;;;;;;;3.22;1.08;;;20.10;99.90;;;;;;5103233;27;20082;-66
2023/08/19 01:40:28;;;;;;;1.40;0.80;;;20.10;99.90;;;;;;5136162;27;20035;-65
2023/08/19 01:42:54;;;;;;;0.60;0.60;;;20.10;99.90;;;;;;5106287;27;20087;-65
2023/08/19 01:45:20;;;;;;;0.73;0.60;;;20.10;99.90;;;;;;5099071;27;20050;-65
2023/08/19 01:47:52;;;;;;;2.33;1.73;;;20.10;99.90;;;;;;5131060;27;20039;-66
2023/08/19 01:50:18;;;;;;;0.40;0.40;;;20.10;99.90;;;;;;5103749;27;20031;-65
2023/08/19 01:52:44;;;;;;;0.13;0.13;;;20.10;99.90;;;;;;5117382;27;20417;-66
2023/08/19 01:55:09;;;;;;;0.55;0.50;;;20.10;99.90;;;;;;5107791;27;20042;-66
2023/08/19 01:57:35;;;;;;;0.32;0.32;;;20.10;99.90;;;;;;5120101;27;20407;-66
2023/08/19 02:00:02;;;;;;;0.65;0.65;;;20.10;99.90;;;;;;5107898;27;20035;-65
2023/08/19 02:02:28;;;;;;;0.70;0.57;;;20.10;99.90;;;;;;5099993;27;20470;-65
2023/08/19 02:04:53;;;;;;;0.40;0.40;;;20.10;99.90;;;;;;5103602;27;20075;-66
2023/08/19 02:07:19;;;;;;;0.65;0.65;;;20.10;99.90;;;;;;5122646;27;20091;-65
2023/08/19 02:09:46;;;;;;;0.90;0.85;;;20.10;99.90;;;;;;5105741;27;20076;-65
2023/08/19 02:12:11;;;;;;;1.55;1.27;;;20.00;99.90;;;;;;5100097;27;20047;-66
2023/08/19 02:14:37;;;;;;;0.57;0.57;;;20.00;99.90;;;;;;5099333;27;20043;-66
2023/08/19 02:17:03;;;;;;;6.97;1.75;;;20.00;99.90;;;;;;5125985;27;20287;-65
2023/08/19 02:19:28;;;;;;;2.75;1.20;;;20.00;99.90;;;;;;5101034;27;20050;-65
2023/08/19 02:21:54;;;;;;;1.80;1.02;;;20.00;99.90;;;;;;5131874;27;20463;-65
2023/08/19 02:24:19;;;;;;;2.53;1.67;;;20.00;99.90;;;;;;5101240;27;20103;-65
2023/08/19 02:26:45;;;;;;;2.88;1.92;;;19.90;99.90;;;;;;5120518;27;20110;-65
2023/08/19 02:29:11;;;;;;;10.73;1.67;;;20.00;99.90;;;;;;5099129;27;20097;-65
2023/08/19 02:31:37;;;;;;;1.40;0.98;;;19.90;99.90;;;;;;5102252;27;20035;-66
2023/08/19 02:34:03;;;;;;;0.95;0.77;;;19.90;99.90;;;;;;5100571;27;20313;-65
2023/08/19 02:36:29;;;;;;;0.63;0.32;;;20.00;99.90;;;;;;5099755;27;20521;-65
2023/08/19 02:38:55;;;;;;;1.05;0.88;;;20.00;99.90;;;;;;5102651;27;20043;-65
2023/08/19 02:41:20;;;;;;;0.47;0.47;;;19.90;99.90;;;;;;5106323;27;20157;-65
2023/08/19 02:43:46;;;;;;;1.45;1.42;;;20.00;99.90;;;;;;5098797;28;20043;-65
2023/08/19 02:46:11;;;;;;;1.05;0.55;;;20.00;99.90;;;;;;5102083;27;20031;-65
2023/08/19 02:48:37;;;;;;;1.23;1.05;;;20.00;99.90;;;;;;5097359;27;20038;-66
2023/08/19 02:51:02;;;;;;;2.78;1.83;;;19.90;99.90;;;;;;5103375;27;20432;-65
2023/08/19 02:53:28;;;;;;;5.60;0.95;;;20.00;99.90;;;;;;5103783;27;20050;-66
2023/08/19 02:55:54;;;;;;;0.32;0.32;;;20.00;99.90;;;;;;5107086;27;20389;-65
2023/08/19 02:58:20;;;;;;;0.95;0.82;;;19.90;99.90;;;;;;5096764;27;20507;-65
2023/08/19 03:00:47;;;;;;;1.23;0.90;;;20.00;99.90;;;;;;5124149;27;20046;-66
2023/08/19 03:03:13;;;;;;;0.17;0.17;;;19.90;99.90;;;;;;5096909;28;20059;-65
2023/08/19 03:05:39;;;;;;;0.93;0.45;;;20.00;99.90;;;;;;5102041;27;20031;-65
2023/08/19 03:08:06;;;;;;;0.55;0.55;;;20.00;99.90;;;;;;5101195;27;20051;-66
2023/08/19 03:10:36;;;;;;;1.00;1.00;;;19.90;99.90;;;;;;5138929;27;20047;-65
2023/08/19 03:13:03;;;;;;;0.52;0.52;;;19.90;99.90;;;;;;5113391;27;20054;-65
2023/08/19 03:15:30;;;;;;;0.90;0.88;;;19.90;99.90;;;;;;5098981;27;20418;-65
2023/08/19 03:17:56;;;;;;;0.90;0.88;;;20.00;99.90;;;;;;5096639;27;20465;-65
2023/08/19 03:20:21;;;;;;;0.85;0.63;;;19.90;99.90;;;;;;5097623;27;20078;-65
2023/08/19 03:22:47;;;;;;;1.02;0.40;;;20.00;99.90;;;;;;5103038;27;20039;-65
2023/08/19 03:25:13;;;;;;;0.43;0.28;;;19.90;99.90;;;;;;5122565;27;20070;-65
2023/08/19 03:27:39;;;;;;;0.57;0.57;;;19.90;99.90;;;;;;5114570;27;20023;-65
2023/08/19 03:30:05;;;;;;;0.32;0.32;;;19.90;99.90;;;;;;5103172;27;20043;-65
2023/08/19 03:32:33;;;;;;;2.95;0.80;;;19.90;99.90;;;;;;5094652;27;20122;-65
2023/08/19 03:34:59;;;;;;;2.33;0.50;;;19.90;99.90;;;;;;5104107;27;20473;-66
2023/08/19 03:37:25;;;;;;;0.98;0.82;;;19.90;99.90;;;;;;5102316;27;20080;-65
2023/08/19 03:39:51;;;;;;;0.57;0.57;;;20.00;99.90;;;;;;5120009;27;20063;-65
2023/08/19 03:42:17;;;;;;;0.70;0.70;;;20.00;99.90;;;;;;5104738;28;20536;-65
2023/08/19 03:44:43;;;;;;;0.50;0.50;;;20.00;99.90;;;;;;5096585;28;20547;-66
2023/08/19 03:47:11;;;;;;;1.85;0.63;;;19.90;99.90;;;;;;5100547;27;20088;-65
2023/08/19 03:49:37;;;;;;;1.13;0.35;;;20.00;99.90;;;;;;5099978;27;20043;-65
2023/08/19 03:52:04;;;;;;;0.32;0.32;;;20.00;99.90;;;;;;5103598;28;20469;-66
2023/08/19 03:54:30;;;;;;;0.65;0.40;;;20.00;99.90;;;;;;5096768;27;20066;-65
2023/08/19 03:56:56;;;;;;;0.30;0.30;;;20.00;99.90;;;;;;5098057;27;20067;-65
2023/08/19 03:59:21;;;;;;;1.08;0.98;;;20.00;99.90;;;;;;5098063;28;20302;-65
2023/08/19 04:01:47;;;;;;;0.73;0.68;;;20.00;99.90;;;;;;5098549;28;20043;-66
2023/08/19 04:04:12;;;;;;;2.20;1.23;;;20.00;99.90;;;;;;5120076;28;20046;-65
2023/08/19 04:06:38;;;;;;;0.93;0.50;;;20.00;99.90;;;;;;5122975;28;20463;-66
2023/08/19 04:09:05;;;;;;;1.10;0.45;;;20.00;99.90;;;;;;5114732;27;20065;-65
2023/08/19 04:11:30;;;;;;;0.15;0.15;;;20.00;99.90;;;;;;5131589;27;20063;-66
2023/08/19 04:13:56;;;;;;;0.20;0.20;;;20.00;99.90;;;;;;5094010;28;20593;-65
2023/08/19 04:16:23;;;;;;;0.00;0.00;;;20.10;99.90;;;;;;5108516;27;20046;-65
2023/08/19 04:18:50;;;;;;;0.20;0.20;;;20.10;99.90;;;;;;5120343;27;20044;-65
2023/08/19 04:21:16;;;;;;;0.10;0.10;;;20.10;99.90;;;;;;5106412;27;20039;-66
2023/08/19 04:23:41;;;;;;;0.35;0.35;;;20.10;99.90;;;;;;5101443;27;20031;-65
2023/08/19 04:26:07;;;;;;;0.70;0.63;;;20.10;99.90;;;;;;5108262;27;20498;-66
2023/08/19 04:28:33;;;;;;;1.05;0.38;;;20.10;99.90;;;;;;5122127;27;20034;-66
2023/08/19 04:31:03;;;;;;;1.05;0.75;;;20.10;99.90;;;;;;5104025;27;20424;-66
2023/08/19 04:33:29;;;;;;;1.38;0.52;;;20.10;99.90;;;;;;5096478;27;20151;-66
2023/08/19 04:35:55;;;;;;;0.40;0.40;;;20.20;99.90;;;;;;5104828;27;20122;-66
2023/08/19 04:38:21;;;;;;;1.50;1.38;;;20.20;99.90;;;;;;5101173;27;20126;-66
2023/08/19 04:40:46;;;;;;;0.15;0.15;;;20.30;99.90;;;;;;5105334;27;20043;-66
2023/08/19 04:43:12;;;;;;;0.40;0.38;;;20.30;99.90;;;;;;5105528;27;20048;-65
2023/08/19 04:45:38;;;;;;;0.10;0.10;;;20.30;99.90;;;;;;5109194;27;20405;-65
2023/08/19 04:48:05;;;;;;;0.30;0.30;;;20.30;99.90;;;;;;5105045;27;20394;-65
2023/08/19 04:50:31;;;;;;;0.13;0.13;;;20.40;99.90;;;;;;5106224;27;20043;-65
2023/08/19 04:52:57;;;;;;;0.30;0.30;;;20.40;99.90;;;;;;5104778;27;20062;-66
2023/08/19 04:55:22;;;;;;;0.17;0.17;;;20.40;99.90;;;;;;5105652;27;20483;-65
2023/08/19 04:57:48;;;;;;;0.77;0.77;;;20.40;99.90;;;;;;5097556;27;20039;-65
2023/08/19 05:00:14;;;;;;;0.63;0.32;;;20.50;99.90;;;;;;5100795;27;20027;-66
2023/08/19 05:02:39;;;;;;;0.90;0.80;;;20.50;99.90;;;;;;5104558;27;20114;-66
2023/08/19 05:05:05;;;;;;;0.70;0.70;;;20.50;99.90;;;;;;5098828;27;20054;-65
2023/08/19 05:07:31;;;;;;;0.20;0.20;;;20.50;99.90;;;;;;5103030;27;20050;-66
2023/08/19 05:09:57;;;;;;;0.55;0.40;;;20.50;99.90;;;;;;5105078;27;20432;-65
2023/08/19 05:12:25;;;;;;;0.30;0.30;;;20.60;99.90;;;;;;5116690;27;20124;-65
2023/08/19 05:14:51;;;;;;;0.38;0.35;;;20.60;99.90;;;;;;5106275;27;20035;-66
2023/08/19 05:17:18;;;;;;;0.20;0.20;;;20.60;99.90;;;;;;5104850;28;20043;-65
2023/08/19 05:19:44;;;;;;;0.10;0.10;;;20.60;99.90;;;;;;5113600;27;20540;-66
2023/08/19 05:22:09;;;;;;;0.47;0.47;;;20.60;99.90;;;;;;5149452;27;20120;-66
2023/08/19 05:24:35;;;;;;;0.45;0.30;;;20.60;99.90;;;;;;5110426;27;20128;-65
2023/08/19 05:27:01;;;;;;;0.75;0.63;;;20.60;99.90;;;;;;5105833;27;20065;-65
2023/08/19 05:29:26;;;;;;;0.22;0.22;;;20.60;99.90;;;;;;5107552;28;20043;-65
2023/08/19 05:31:52;;;;;;;0.80;0.77;;;20.60;99.90;;;;;;5112851;27;20090;-65
2023/08/19 05:34:18;;;;;;;0.32;0.32;;;20.60;99.90;;;;;;5095342;28;20035;-65
2023/08/19 05:36:44;;;;;;;1.05;0.93;;;20.60;99.90;;;;;;5103415;27;20054;-66
2023/08/19 05:39:09;;;;;;;0.77;0.77;;;20.60;99.90;;;;;;5155440;27;20035;-65
2023/08/19 05:41:35;;;;;;;0.68;0.68;;;20.70;99.90;;;;;;5114545;27;20043;-65
2023/08/19 05:44:01;;;;;;;1.30;0.75;;;20.70;99.90;;;;;;5105013;27;20535;-66
2023/08/19 05:46:26;;;;;;;1.67;0.40;;;20.70;99.90;;;;;;5102401;27;20039;-66
2023/08/19 05:48:52;;;;;;;1.42;0.60;;;20.70;99.90;;;;;;5108366;27;20027;-66
2023/08/19 05:51:19;;;;;;;0.50;0.50;;;20.70;99.90;;;;;;5123708;27;20398;-66
2023/08/19 05:53:44;;;;;;;0.43;0.22;;;20.70;99.90;;;;;;5126334;27;20074;-66
2023/08/19 05:56:10;;;;;;;0.57;0.57;;;20.80;99.90;;;;;;5097847;27;20055;-67
2023/08/19 05:58:38;;;;;;;2.13;1.02;;;20.70;99.90;;;;;;5104273;27;20102;-67
2023/08/19 06:01:03;;;;;;;0.75;0.43;;;20.80;99.90;;;;;;5099799;28;20040;-66
2023/08/19 06:03:29;;;;;;;0.38;0.25;;;20.80;99.90;;;;;;5102330;27;20043;-66
2023/08/19 06:05:55;;;;;;;2.35;0.82;;;20.80;99.90;;;;;;5104663;27;20553;-66
2023/08/19 06:08:20;;;;;;;1.00;0.50;;;20.80;99.90;;;;;;5105879;27;20527;-66
2023/08/19 06:10:56;;;;;;;0.30;0.30;;;20.80;99.90;;;;;;5113097;27;20096;-66
2023/08/19 06:13:22;;;;;;;0.45;0.45;;;20.80;99.90;;;;;;5105656;27;20096;-66
2023/08/19 06:15:49;;;;;;;1.10;1.05;;;20.90;99.90;;;;;;5130235;27;20481;-66
2023/08/19 06:18:15;;;;;;;0.57;0.57;;;20.90;99.90;;;;;;5118514;27;20071;-66
2023/08/19 06:20:41;;;;;;;0.73;0.73;;;20.90;99.90;;;;;;5110219;27;20447;-66
2023/08/19 06:23:07;;;;;;;0.60;0.60;;;20.90;99.90;;;;;;5101974;27;20130;-66
2023/08/19 06:25:32;;;;;;;0.20;0.20;;;20.90;99.90;;;;;;5121075;27;20134;-66
2023/08/19 06:27:58;;;;;;;0.60;0.60;;;20.90;99.90;;;;;;5107719;27;20044;-66
2023/08/19 06:30:23;;;;;;;0.10;0.10;;;20.90;99.90;;;;;;5112098;27;20116;-66
2023/08/19 06:32:49;;;;;;;0.20;0.20;;;20.90;99.90;;;;;;5121312;27;20118;-66
2023/08/19 06:35:15;;;;;;;0.20;0.20;;;20.90;99.90;;;;;;5102033;27;20155;-66
2023/08/19 06:37:45;;;;;;;1.27;0.77;;;21.00;99.90;;;;;;5138204;27;20039;-66
2023/08/19 06:40:17;;;;;;;0.30;0.30;;;21.00;99.90;;;;;;5106713;27;20701;-66
2023/08/19 06:42:43;;;;;;;0.65;0.65;;;21.00;99.90;;;;;;5101179;27;20117;-66
2023/08/19 06:45:10;;;;;;;0.30;0.30;;;21.10;99.90;;;;;;5100374;27;20412;-67
2023/08/19 06:47:38;;;;;;;0.50;0.40;;;21.20;99.90;;;;;;5099426;27;20043;-67
2023/08/19 06:50:04;;;;;;;0.57;0.22;;;21.30;99.90;;;;;;5103649;27;20089;-67
2023/08/19 06:52:30;;;;;;;0.52;0.52;;;21.30;99.90;;;;;;5102546;27;20431;-67
2023/08/19 06:54:56;;;;;;;0.30;0.30;;;21.30;99.90;;;;;;5102619;27;20035;-67
2023/08/19 06:57:28;;;;;;;1.38;1.15;;;21.40;99.90;;;;;;5100200;27;20046;-67
2023/08/19 07:00:09;;;;;;;;;;;21.40;99.90;;;;;;5135926;27;20109;-67
2023/08/19 07:02:36;;;;;;;0.40;0.25;;;21.40;99.90;;;;;;5100681;27;19916;-66
2023/08/19 07:05:06;;;;;;;0.20;0.20;;;21.50;99.90;;;;;;5106078;27;20036;-67
2023/08/19 07:07:33;;;;;;;0.40;0.40;;;21.50;99.90;;;;;;5101699;27;20043;-66
2023/08/19 07:09:58;;;;;;;0.30;0.30;;;21.60;99.90;;;;;;5107701;27;20047;-66
2023/08/19 07:12:24;;;;;;;0.35;0.35;;;21.60;99.90;;;;;;5107517;27;21621;-66
2023/08/19 07:14:50;;;;;;;0.32;0.10;;;21.70;99.90;;;;;;5110796;27;20383;-66
2023/08/19 07:17:22;;;;;;;0.20;0.20;;;21.70;99.90;;;;;;5107600;27;20038;-66
2023/08/19 07:19:51;;;;;;;0.20;0.20;;;21.80;99.90;;;;;;5093201;28;20070;-66
2023/08/19 07:22:17;;;;;;;1.45;0.85;;;21.80;99.90;;;;;;5092023;27;20096;-66
2023/08/19 07:24:43;;;;;;;1.77;0.60;;;21.90;99.90;;;;;;5105948;27;20046;-66
2023/08/19 07:27:10;;;;;;;0.63;0.63;;;22.00;99.90;;;;;;5107634;27;20043;-66
2023/08/19 07:29:37;;;;;;;1.77;0.55;;;22.00;99.90;;;;;;5104338;27;20481;-66
2023/08/19 07:32:04;;;;;;;0.93;0.40;;;22.10;99.90;;;;;;5121605;27;20047;-66
2023/08/19 07:34:30;;;;;;;0.57;0.57;;;22.10;99.90;;;;;;5092532;28;20031;-66
2023/08/19 07:36:56;;;;;;;1.25;0.95;;;22.10;99.90;;;;;;5092429;28;20122;-66
2023/08/19 07:39:22;;;;;;;2.30;0.70;;;22.20;99.90;;;;;;5119412;27;20448;-66
2023/08/19 07:41:49;;;;;;;1.45;0.68;;;22.30;99.90;;;;;;5116407;27;20043;-66
2023/08/19 07:44:14;;;;;;;0.30;0.30;;;22.40;99.90;;;;;;5105759;27;20046;-66
2023/08/19 07:46:40;;;;;;;0.45;0.20;;;22.40;99.90;;;;;;5100764;28;20035;-66
2023/08/19 07:49:05;;;;;;;0.20;0.20;;;22.50;99.90;;;;;;5097879;27;20043;-66
2023/08/19 07:51:32;;;;;;;0.82;0.82;;;22.50;99.90;;;;;;5131614;27;20453;-66
2023/08/19 07:53:57;;;;;;;0.52;0.50;;;22.60;99.90;;;;;;5098537;28;20061;-66
2023/08/19 07:56:23;;;;;;;0.70;0.38;;;22.60;99.90;;;;;;5119537;27;20048;-66
2023/08/19 07:58:49;;;;;;;2.53;0.80;;;22.60;99.90;;;;;;5103793;28;20036;-66
2023/08/19 08:01:14;;;;;;;0.30;0.30;;;22.70;99.90;;;;;;5104562;28;20043;-65
2023/08/19 08:03:40;;;;;;;2.28;0.50;;;22.80;99.90;;;;;;5103830;28;20071;-66
2023/08/19 08:06:06;;;;;;;0.32;0.32;;;22.90;99.90;;;;;;5075153;28;20447;-66
2023/08/19 08:08:31;;;;;;;0.32;0.17;;;23.00;99.90;;;;;;5090621;28;20075;-65
2023/08/19 08:10:57;;;;;;;0.15;0.15;;;23.00;99.90;;;;;;5127325;28;20047;-66
2023/08/19 08:13:22;;;;;;;0.17;0.17;;;23.10;99.90;;;;;;5102332;28;20375;-65
2023/08/19 08:15:48;;;;;;;0.47;0.47;;;23.10;99.90;;;;;;5109585;28;20082;-65
2023/08/19 08:18:14;;;;;;;0.17;0.17;;;23.20;99.90;;;;;;5091599;28;20073;-66
2023/08/19 08:20:40;;;;;;;0.13;0.13;;;23.30;99.90;;;;;;5111581;28;20038;-65
2023/08/19 08:23:06;;;;;;;0.35;0.35;;;23.40;99.90;;;;;;5117081;28;20043;-66
2023/08/19 08:25:32;;;;;;;1.00;0.25;;;23.50;99.90;;;;;;5112531;28;20549;-66
2023/08/19 08:27:57;;;;;;;2.95;1.17;;;23.60;99.90;;;;;;5121417;28;20611;-65
2023/08/19 08:30:23;;;;;;;0.65;0.65;;;23.70;99.90;;;;;;5092978;28;20032;-65
2023/08/19 08:32:50;;;;;;;0.60;0.60;;;23.80;99.90;;;;;;5110427;28;20122;-65
2023/08/19 08:35:15;;;;;;;0.40;0.40;;;23.90;99.90;;;;;;5121257;28;20039;-65
2023/08/19 08:37:41;;;;;;;0.45;0.38;;;24.00;99.90;;;;;;5125025;28;20044;-65
2023/08/19 08:40:07;;;;;;;0.32;0.32;;;24.10;99.90;;;;;;5108333;28;20043;-65
2023/08/19 08:42:33;;;;;;;0.47;0.47;;;24.20;99.90;;;;;;5108317;28;20039;-65
2023/08/19 08:44:59;;;;;;;0.60;0.60;;;24.30;99.90;;;;;;5111926;28;20046;-65
2023/08/19 08:47:26;;;;;;;0.98;0.32;;;24.30;99.90;;;;;;5111919;28;20117;-65
2023/08/19 08:49:53;;;;;;;0.25;0.20;;;24.30;99.90;;;;;;5096349;28;20039;-65
2023/08/19 08:52:20;;;;;;;1.48;0.80;;;24.30;99.90;;;;;;5108710;27;20052;-65
2023/08/19 08:54:51;;;;;;;2.10;0.95;;;24.30;99.90;;;;;;5110526;28;20409;-65
2023/08/19 08:57:17;;;;;;;0.52;0.52;;;24.30;99.90;;;;;;5096096;28;20051;-65
2023/08/19 08:59:43;;;;;;;3.50;2.38;;;24.30;99.90;;;;;;5118619;28;20039;-65
2023/08/19 09:02:12;;;;;;;1.13;0.85;;;24.30;99.90;;;;;;5112490;27;20040;-65
2023/08/19 09:04:41;;;;;;;0.88;0.55;;;24.30;99.90;;;;;;5111176;27;20054;-65
2023/08/19 09:07:16;;;;;;;1.40;1.30;;;24.40;99.90;;;;;;5112556;27;20410;-65
2023/08/19 09:09:45;;;;;;;1.17;1.08;;;24.40;99.90;;;;;;5113096;27;20043;-65
2023/08/19 09:12:12;;;;;;;0.80;0.55;;;24.40;99.90;;;;;;5094250;27;20114;-65
2023/08/19 09:14:46;;;;;;;0.40;0.40;;;24.50;99.90;;;;;;5114529;27;20081;-65
2023/08/19 09:17:14;;;;;;;2.08;0.90;;;24.60;99.90;;;;;;5121588;27;20069;-65
2023/08/19 09:19:40;;;;;;;0.68;0.68;;;24.70;99.90;;;;;;5112416;27;20542;-65
2023/08/19 09:22:16;;;;;;;0.80;0.80;;;24.90;99.90;;;;;;5103887;27;20397;-65
2023/08/19 09:24:42;;;;;;;1.20;0.88;;;25.00;99.90;;;;;;5114788;27;20046;-65
2023/08/19 09:27:07;;;;;;;1.40;1.10;;;25.20;99.90;;;;;;5112592;27;20031;-65
2023/08/19 09:29:33;;;;;;;1.67;1.60;;;25.20;99.90;;;;;;5120469;27;20131;-66
2023/08/19 09:31:59;;;;;;;1.25;0.75;;;25.20;99.90;;;;;;5110478;27;20442;-65
2023/08/19 09:34:25;;;;;;;0.82;0.82;;;25.20;99.90;;;;;;5119724;27;20070;-65
2023/08/19 09:36:57;;;;;;;2.15;1.13;;;25.10;99.90;;;;;;5103132;27;20042;-65
2023/08/19 09:39:26;;;;;;;0.68;0.60;;;25.00;99.90;;;;;;5109263;27;20118;-65
2023/08/19 09:41:58;;;;;;;1.52;0.80;;;24.90;99.90;;;;;;5111740;27;20118;-65
2023/08/19 09:44:27;;;;;;;0.90;0.52;;;24.80;99.90;;;;;;5124208;27;20039;-65
2023/08/19 09:46:55;;;;;;;0.30;0.30;;;24.70;99.90;;;;;;5109783;27;20472;-66
2023/08/19 09:49:21;;;;;;;0.17;0.17;;;24.60;99.90;;;;;;5121796;27;20131;-67
2023/08/19 09:51:54;;;;;;;1.00;0.55;;;24.60;99.90;;;;;;5129968;27;20474;-67
2023/08/19 09:54:19;;;;;;;1.85;1.08;;;24.50;99.90;;;;;;5116026;27;20039;-66
2023/08/19 09:56:55;;;;;;;0.65;0.55;;;24.40;99.90;;;;;;5110215;27;20039;-67
2023/08/19 09:59:25;;;;;;;2.83;1.38;;;24.40;99.90;;;;;;5094860;28;20225;-66
2023/08/19 10:01:52;;;;;;;0.80;0.65;;;24.30;99.90;;;;;;5112794;27;20206;-66
2023/08/19 10:04:19;;;;;;;0.35;0.35;;;24.30;99.90;;;;;;5112060;27;20035;-66
2023/08/19 10:06:48;;;;;;;0.77;0.77;;;24.30;99.90;;;;;;5129798;27;20054;-66
2023/08/19 10:09:17;;;;;;;1.45;0.60;;;24.20;99.90;;;;;;5128065;27;20082;-66
2023/08/19 10:11:45;;;;;;;1.13;1.02;;;24.20;99.90;;;;;;5122129;27;20475;-66
2023/08/19 10:14:12;;;;;;;0.60;0.60;;;24.20;99.90;;;;;;5100694;28;20044;-66
2023/08/19 10:16:43;;;;;;;0.47;0.47;;;24.20;99.90;;;;;;5107094;27;20043;-66
2023/08/19 10:19:11;;;;;;;0.88;0.73;;;24.20;99.90;;;;;;5105628;27;20039;-66
2023/08/19 10:21:38;;;;;;;4.90;1.33;;;24.20;99.90;;;;;;5112677;28;20122;-66
2023/08/19 10:24:06;;;;;;;1.67;1.17;;;24.20;99.90;;;;;;5094685;28;20039;-66
2023/08/19 10:26:32;;;;;;;0.70;0.70;;;24.30;99.90;;;;;;5093795;28;20079;-66
2023/08/19 10:29:05;;;;;;;0.52;0.52;;;24.40;99.90;;;;;;5116360;27;20039;-66
2023/08/19 10:31:32;;;;;;;1.10;0.70;;;24.50;99.90;;;;;;5131028;27;20038;-66
2023/08/19 10:33:58;;;;;;;1.17;1.08;;;24.50;99.90;;;;;;5109208;27;20409;-66
2023/08/19 10:36:29;;;;;;;2.17;1.05;;;24.60;99.90;;;;;;5120026;27;20393;-66
2023/08/19 10:39:02;;;;;;;0.60;0.60;;;24.60;99.90;;;;;;5094692;27;20040;-66
2023/08/19 10:41:30;;;;;;;0.70;0.63;;;24.70;99.90;;;;;;5140656;27;20097;-67
2023/08/19 10:44:01;;;;;;;1.35;1.25;;;24.70;99.90;;;;;;5108002;27;20043;-66
2023/08/19 10:46:35;;;;;;;2.25;1.30;;;24.80;99.90;;;;;;5134602;27;20040;-66
2023/08/19 10:49:03;;;;;;;0.65;0.60;;;24.90;99.90;;;;;;5095361;27;20039;-67
2023/08/19 10:51:48;;;;;;;1.52;0.88;;;25.00;99.90;;;;;;5120667;27;20651;-66
2023/08/19 10:54:23;;;;;;;2.92;1.25;;;25.20;99.90;;;;;;5101037;27;20089;-67
2023/08/19 10:57:11;;;;;;;1.85;1.75;;;25.30;99.90;;;;;;5096101;27;20043;-66
2023/08/19 10:59:39;;;;;;;1.45;1.17;;;25.50;99.90;;;;;;5101737;27;20038;-66
2023/08/19 11:02:06;;;;;;;3.53;1.33;;;25.50;99.90;;;;;;5096678;27;20159;-64
2023/08/19 11:04:32;;;;;;;2.05;1.58;;;25.50;99.90;;;;;;5082198;27;20066;-64
2023/08/19 11:06:58;;;;;;;1.45;0.98;;;25.60;99.90;;;;;;5096955;28;20485;-65
2023/08/19 11:09:28;;;;;;;4.50;2.17;;;25.60;99.90;;;;;;5099230;27;20068;-65
2023/08/19 11:11:57;;;;;;;5.50;1.90;;;25.60;99.90;;;;;;5097948;27;20058;-66
2023/08/19 11:14:23;;;;;;;1.67;1.33;;;25.60;99.90;;;;;;5100825;27;20035;-65
2023/08/19 11:16:54;;;;;;;0.70;0.70;;;25.70;99.90;;;;;;5094860;27;20084;-66
2023/08/19 11:19:21;;;;;;;5.32;2.22;;;25.80;99.90;;;;;;5124298;27;20525;-66
2023/08/19 11:21:47;;;;;;;5.53;2.30;;;26.10;99.90;;;;;;5096515;27;20047;-68
2023/08/19 11:24:13;;;;;;;3.30;1.65;;;26.20;99.90;;;;;;5092511;28;20550;-66
2023/08/19 11:26:44;;;;;;;2.38;2.17;;;26.20;99.90;;;;;;5098461;27;20035;-67
2023/08/19 11:29:10;;;;;;;3.08;2.00;;;26.30;99.90;;;;;;5100179;27;20039;-67
2023/08/19 11:31:40;;;;;;;2.25;2.05;;;26.40;99.90;;;;;;5107245;28;20438;-69
2023/08/19 11:34:10;;;;;;;3.40;3.20;;;26.40;99.90;;;;;;5094077;28;20035;-69
2023/08/19 11:36:36;;;;;;;5.70;1.90;;;26.30;99.90;;;;;;5117959;27;20088;-67
2023/08/19 11:39:06;;;;;;;2.50;1.90;;;26.30;99.90;;;;;;5093824;27;21729;-67
2023/08/19 11:41:33;;;;;;;3.47;2.40;;;26.30;99.90;;;;;;5112968;27;20040;-68
2023/08/19 11:44:00;;;;;;;4.22;3.83;;;26.20;99.90;;;;;;5131795;27;20043;-67
2023/08/19 11:46:34;;;;;;;5.85;3.88;;;26.10;99.90;;;;;;5130787;27;20451;-67
2023/08/19 11:49:04;;;;;;;14.57;7.28;;;25.80;99.90;;;;;;5098333;28;20457;-68
2023/08/19 11:51:30;;;;;;;15.90;8.27;;;25.70;99.90;;;;;;5099403;27;20047;-68
2023/08/19 11:54:05;;;;;;;9.43;5.00;;;25.60;99.90;;;;;;5118311;27;20075;-68
2023/08/19 11:56:47;;;;;;;6.22;3.72;;;25.50;99.90;;;;;;5098198;27;20050;-71
2023/08/19 11:59:12;;;;;;;;;;;25.60;99.90;;;;;;5132165;27;20062;-69
2023/08/19 12:01:38;;;;;;;5.30;3.05;;;25.60;99.90;;;;;;5110653;27;20690;-67
2023/08/19 12:04:18;;;;;;;21.15;6.72;;;25.40;99.90;;;;;;5141479;27;20027;-67
2023/08/19 12:06:46;;;;;;;5.97;3.30;;;25.30;99.90;;;;;;5099314;28;20045;-67
2023/08/19 12:09:12;;;;;;;6.47;5.63;;;25.20;99.90;;;;;;5103549;28;20501;-67
2023/08/19 12:11:38;;;;;;;7.25;4.25;;;25.20;99.90;;;;;;5096645;28;20375;-65
2023/08/19 12:14:06;;;;;;;8.20;4.97;;;25.20;99.90;;;;;;5104483;28;20129;-67
2023/08/19 12:16:31;;;;;;;5.65;3.70;;;25.00;99.90;;;;;;5104006;27;20056;-67
2023/08/19 12:18:58;;;;;;;7.97;4.25;;;24.90;99.90;;;;;;5118788;27;20050;-65
2023/08/19 12:21:24;;;;;;;10.13;3.65;;;24.80;99.90;;;;;;5111637;28;20092;-68
2023/08/19 12:23:50;;;;;;;4.22;3.53;;;24.60;99.90;;;;;;5110771;28;20125;-68
2023/08/19 12:26:16;;;;;;;4.75;3.30;;;24.50;99.90;;;;;;5121541;28;20047;-68
2023/08/19 12:28:43;;;;;;;5.35;2.75;;;24.40;99.90;;;;;;5099478;28;20039;-67
2023/08/19 12:31:09;;;;;;;6.22;3.58;;;24.40;99.90;;;;;;5117515;28;20065;-66
2023/08/19 12:33:35;;;;;;;8.25;3.97;;;24.20;99.90;;;;;;5128350;27;20470;-66
2023/08/19 12:36:01;;;;;;;2.17;1.42;;;24.20;99.90;;;;;;5106127;27;20042;-66
2023/08/19 12:38:26;;;;;;;5.15;3.88;;;24.10;99.90;;;;;;5098035;27;20435;-66
2023/08/19 12:40:52;;;;;;;4.07;1.42;;;24.00;99.90;;;;;;5102610;27;20549;-68
2023/08/19 12:43:18;;;;;;;1.77;1.35;;;24.00;99.90;;;;;;5121633;27;20515;-68
2023/08/19 12:45:43;;;;;;;1.02;0.93;;;23.90;99.90;;;;;;5100870;27;20051;-67
2023/08/19 12:48:10;;;;;;;1.23;1.23;;;23.90;99.90;;;;;;5095994;27;20039;-68